This demonstration page uses our WeatherBlox Daily Observations layout. Learn more.

39.92423, -83.80882

Hourly Observations for April 25, 2017

Temp ( °F °C ) Dew Point ( °F °C ) Humidity (%) Winds ( mph kmh ) Pressure ( in mb ) Visibility ( mi km ) Precip ( " mm )
12:56 am 00:56 Mostly Cloudy 53 11.7 47 8.3 80 80 E 9 15 29.84 1010 10 16.0934 0 0
1:56 am 01:56 Clear 52 11.1 47 8.3 83 83 E 10 17 29.83 1010 10 16.0934 0 0
2:56 am 02:56 Clear 50 10 47 8.3 89 89 E 9 15 29.81 1009 10 16.0934 0 0
3:56 am 03:56 Mostly Cloudy 51 10.6 47 8.3 86 86 E 7 11 29.8 1009 10 16.0934 0 0
4:56 am 04:56 Cloudy 52 11.1 47 8.3 83 83 E 9 15 29.81 1009 10 16.0934 0 0
5:56 am 05:56 Cloudy 52 11.1 47 8.3 83 83 E 7 11 29.81 1010 10 16.0934 0 0
6:56 am 06:56 Cloudy 52 11.1 48 8.9 86 86 ESE 6 9 29.83 1010 10 16.0934 0 0
7:56 am 07:56 Cloudy 53 11.7 48 8.9 83 83 E 7 11 29.83 1010 10 16.0934 0 0
8:56 am 08:56 Cloudy 56 13.3 49 9.4 77 77 ESE 12 19 29.84 1010 10 16.0934 0 0
9:56 am 09:56 Cloudy 59 15 50 10 72 72 ESE 10 17 29.83 1010 10 16.0934 0 0
10:56 am 10:56 Mostly Cloudy with Haze 65 18.3 52 11.1 63 63 ESE 9 15 29.83 1010 6 9.65604 0 0
11:56 am 11:56 Mostly Cloudy 68 20 53 11.7 59 59 SSE 12 19 29.81 1010 8 12.87472 0 0
12:56 pm 12:56 Mostly Sunny 72 22.2 55 12.8 55 55 ESE 13 20 29.78 1008 10 16.0934 0 0
1:56 pm 13:56 Sunny 73 22.8 54 12.2 51 51 SSE 15 24 29.76 1008 10 16.0934 0 0
2:56 pm 14:56 Partly Cloudy 75 23.9 55 12.8 50 50 S 9 15 29.74 1007 9 14.48406 0 0
3:56 pm 15:56 Cloudy with Haze 74 23.3 56 13.3 54 54 ESE 12 19 29.72 1006 6 9.65604 0 0
4:56 pm 16:56 Cloudy with Haze 73 22.8 55 12.8 53 53 ESE 7 11 29.71 1006 4 6.43736 0 0
5:56 pm 17:56 Partly Cloudy 74 23.3 55 12.8 52 52 S 6 9 29.7 1006 9 14.48406 0 0
6:56 pm 18:56 Cloudy 73 22.8 55 12.8 53 53 SSE 6 9 29.7 1006 10 16.0934 0 0
7:56 pm 19:56 Sunny 70 21.1 55 12.8 59 59 SE 7 11 29.69 1006 10 16.0934 0 0
8:56 pm 20:56 Clear 65 18.3 54 12.2 68 68 SE 6 9 29.69 1006 10 16.0934 0 0
9:56 pm 21:56 Clear 62 16.7 54 12.2 75 75 ESE 8 13 29.71 1006 10 16.0934 0 0
10:56 pm 22:56 Clear 63 17.2 54 12.2 73 73 SE 8 13 29.7 1006 10 16.0934 0 0
11:56 pm 23:56 Clear 61 16.1 54 12.2 78 78 SE 7 11 29.7 1006 10 16.0934 0 0

Powered by AerisWeather